Time;durP1;ratioP1;P1;durP2;ratioP2;P2;SDS_P1;SDS_P2;PMS_P1;PMS_P2;Temp;Humidity;BMP_temperature;BMP_pressure;BME280_temperature;BME280_humidity;BME280_pressure;Samples;Min_cycle;Max_cycle;Signal;HPM_P1;HPM_P2
2021/03/29 00:00:42;;;;;;;0.60;0.60;;;10.10;99.90;;;;;;6086899;23;20175;-84
2021/03/29 00:03:08;;;;;;;0.50;0.50;;;9.90;99.90;;;;;;6065411;23;20699;-84
2021/03/29 00:05:35;;;;;;;0.60;0.60;;;9.80;99.90;;;;;;6058745;23;20184;-85
2021/03/29 00:08:07;;;;;;;0.60;0.60;;;9.80;99.90;;;;;;6058658;23;20616;-84
2021/03/29 00:10:36;;;;;;;0.60;0.60;;;9.90;99.90;;;;;;6058681;23;20285;-84
2021/03/29 00:13:03;;;;;;;0.60;0.60;;;9.90;99.90;;;;;;6058464;23;20202;-84
2021/03/29 00:15:33;;;;;;;0.60;0.60;;;9.80;99.90;;;;;;6058230;23;20190;-84
2021/03/29 00:18:00;;;;;;;0.50;0.50;;;9.60;99.90;;;;;;6058062;23;20172;-83
2021/03/29 00:20:29;;;;;;;0.60;0.60;;;9.80;99.90;;;;;;6058018;23;20176;-84
2021/03/29 00:22:57;;;;;;;0.60;0.60;;;9.70;99.90;;;;;;6057939;23;20234;-84
2021/03/29 00:25:25;;;;;;;0.60;0.60;;;9.60;99.90;;;;;;6058296;23;20180;-84
2021/03/29 00:27:52;;;;;;;0.60;0.60;;;9.60;99.90;;;;;;6059900;23;20183;-85
2021/03/29 00:30:22;;;;;;;0.60;0.60;;;9.60;99.90;;;;;;6067685;23;20204;-83
2021/03/29 00:32:50;;;;;;;0.60;0.60;;;9.60;99.90;;;;;;6082632;23;20200;-83
2021/03/29 00:35:19;;;;;;;0.60;0.60;;;9.50;99.90;;;;;;6084918;23;20180;-83
2021/03/29 00:37:51;;;;;;;0.60;0.60;;;9.50;99.90;;;;;;6087132;23;20212;-83
2021/03/29 00:40:21;;;;;;;0.60;0.60;;;9.50;99.90;;;;;;6086205;23;20165;-83
2021/03/29 00:42:54;;;;;;;0.60;0.60;;;9.50;99.90;;;;;;6087460;23;20171;-83
2021/03/29 00:45:22;;;;;;;0.60;0.60;;;9.50;99.90;;;;;;6081293;23;20179;-84
2021/03/29 00:47:49;;;;;;;0.50;0.50;;;9.40;99.90;;;;;;6077035;23;20195;-84
2021/03/29 00:50:28;;;;;;;0.60;0.60;;;9.40;99.90;;;;;;6073457;23;20188;-84
2021/03/29 00:52:56;;;;;;;0.60;0.60;;;9.90;99.90;;;;;;6073474;23;20175;-83
2021/03/29 00:55:32;;;;;;;0.60;0.60;;;10.20;99.90;;;;;;6074163;23;20188;-83
2021/03/29 00:58:04;;;;;;;0.50;0.50;;;12.00;99.90;;;;;;6086854;23;20356;-83
2021/03/29 01:00:40;;;;;;;0.60;0.60;;;7.10;99.90;;;;;;6088389;23;20164;-83
2021/03/29 01:05:47;;;;;;;0.50;0.50;;;9.30;99.90;;;;;;6084157;22;20218;-82
2021/03/29 01:10:51;;;;;;;0.60;0.60;;;9.40;99.90;;;;;;6123202;22;20228;-82
2021/03/29 01:13:35;;;;;;;;;;;;;;;;;;;;;
2021/03/29 01:16:08;;;;;;;0.60;0.60;;;9.10;99.90;;;;;;6145675;23;20174;-83
2021/03/29 01:18:41;;;;;;;0.60;0.60;;;9.50;99.90;;;;;;6144505;23;20174;-83
2021/03/29 01:21:22;;;;;;;0.60;0.60;;;10.40;99.90;;;;;;6147927;23;20162;-83
2021/03/29 01:23:52;;;;;;;0.52;0.52;;;12.10;99.90;;;;;;6148454;23;20163;-83
2021/03/29 01:26:36;;;;;;;0.50;0.50;;;14.60;99.90;;;;;;6147851;23;20219;-83
2021/03/29 01:29:04;;;;;;;0.60;0.60;;;9.00;99.90;;;;;;6146965;23;20162;-83
2021/03/29 01:31:46;;;;;;;0.60;0.60;;;9.50;99.90;;;;;;6144114;23;20205;-83
2021/03/29 01:34:15;;;;;;;0.60;0.60;;;9.80;99.90;;;;;;6087744;23;20933;-83
2021/03/29 01:36:44;;;;;;;0.55;0.55;;;8.20;99.90;;;;;;6066391;22;20203;-83
2021/03/29 01:39:21;;;;;;;0.60;0.60;;;9.50;99.90;;;;;;6062248;23;20179;-80
2021/03/29 01:41:49;;;;;;;0.60;0.60;;;10.10;99.90;;;;;;6061664;23;20163;-83
2021/03/29 01:44:16;;;;;;;0.60;0.60;;;9.70;99.90;;;;;;6059640;23;20234;-84
2021/03/29 01:46:43;;;;;;;0.60;0.60;;;10.10;99.90;;;;;;6060187;23;20365;-84
2021/03/29 01:49:10;;;;;;;0.60;0.60;;;9.50;99.90;;;;;;6057658;23;20256;-84
2021/03/29 01:51:37;;;;;;;0.60;0.60;;;9.70;99.90;;;;;;6058261;23;20215;-84
2021/03/29 01:54:04;;;;;;;0.60;0.60;;;9.70;99.90;;;;;;6059697;23;20266;-84
2021/03/29 01:56:33;;;;;;;0.55;0.55;;;9.70;99.90;;;;;;6079872;23;20182;-84
2021/03/29 01:59:10;;;;;;;0.60;0.60;;;10.20;99.90;;;;;;6085256;23;20180;-83
2021/03/29 02:01:41;;;;;;;0.60;0.60;;;10.40;99.90;;;;;;6085411;23;20175;-83
2021/03/29 02:04:15;;;;;;;0.60;0.60;;;9.20;99.90;;;;;;6074237;23;20226;-83
2021/03/29 02:06:43;;;;;;;0.60;0.60;;;9.80;99.90;;;;;;6070812;23;20592;-83
2021/03/29 02:09:10;;;;;;;0.50;0.50;;;10.30;99.90;;;;;;6073866;23;20242;-84
2021/03/29 02:11:38;;;;;;;0.60;0.60;;;9.80;99.90;;;;;;6058927;23;20187;-84
2021/03/29 02:14:06;;;;;;;0.60;0.60;;;9.70;99.90;;;;;;6059637;23;20194;-83
2021/03/29 02:16:34;;;;;;;0.57;0.57;;;10.10;99.90;;;;;;6059525;23;20188;-83
2021/03/29 02:19:02;;;;;;;0.60;0.60;;;9.90;99.90;;;;;;6059076;23;20179;-84
2021/03/29 02:21:33;;;;;;;0.60;0.60;;;10.00;99.90;;;;;;6058853;23;20176;-83
2021/03/29 02:24:00;;;;;;;0.60;0.60;;;10.00;99.90;;;;;;6058778;23;20200;-83
2021/03/29 02:26:42;;;;;;;0.60;0.60;;;9.60;99.90;;;;;;6058660;23;20266;-83
2021/03/29 02:29:10;;;;;;;0.57;0.57;;;10.00;99.90;;;;;;6059065;23;20218;-83
2021/03/29 02:31:36;;;;;;;0.60;0.60;;;10.10;99.90;;;;;;6058803;23;20210;-83
2021/03/29 02:34:05;;;;;;;0.55;0.55;;;10.00;99.90;;;;;;6059002;23;20184;-83
2021/03/29 02:36:32;;;;;;;0.60;0.60;;;10.30;99.90;;;;;;6087745;23;20203;-84
2021/03/29 02:38:59;;;;;;;0.60;0.60;;;10.10;99.90;;;;;;6087533;23;20369;-84
2021/03/29 02:41:29;;;;;;;0.60;0.60;;;10.10;99.90;;;;;;6087016;23;20225;-84
2021/03/29 02:43:56;;;;;;;0.60;0.60;;;10.10;99.90;;;;;;6087316;23;20183;-83
2021/03/29 02:46:26;;;;;;;0.60;0.60;;;10.10;99.90;;;;;;6087772;23;20183;-83
2021/03/29 02:48:55;;;;;;;0.60;0.60;;;10.00;99.90;;;;;;6087685;23;20184;-84
2021/03/29 02:51:22;;;;;;;0.50;0.50;;;10.10;99.90;;;;;;6094036;23;20203;-84
2021/03/29 02:53:50;;;;;;;0.60;0.60;;;10.00;99.90;;;;;;6093997;23;20194;-83
2021/03/29 02:56:20;;;;;;;0.50;0.50;;;10.30;99.90;;;;;;6091613;23;20259;-84
2021/03/29 02:58:52;;;;;;;0.60;0.60;;;10.10;99.90;;;;;;6098465;23;20186;-83
2021/03/29 03:01:24;;;;;;;0.50;0.50;;;10.10;99.90;;;;;;6107186;23;20226;-83
2021/03/29 03:03:53;;;;;;;0.60;0.60;;;10.10;99.90;;;;;;6103880;23;20179;-84
2021/03/29 03:06:19;;;;;;;0.60;0.60;;;10.10;99.90;;;;;;6105077;23;20210;-83
2021/03/29 03:08:46;;;;;;;0.60;0.60;;;10.10;99.90;;;;;;6105498;23;20179;-83
2021/03/29 03:11:13;;;;;;;0.60;0.60;;;10.20;99.90;;;;;;6106065;23;20195;-84
2021/03/29 03:13:42;;;;;;;0.50;0.50;;;10.20;99.90;;;;;;6102289;23;20183;-83
2021/03/29 03:16:09;;;;;;;0.60;0.60;;;10.20;99.90;;;;;;6102958;23;20183;-83
2021/03/29 03:18:36;;;;;;;0.50;0.50;;;10.10;99.90;;;;;;6103033;23;20213;-83
2021/03/29 03:21:03;;;;;;;0.60;0.60;;;10.10;99.90;;;;;;6102923;23;20186;-82
2021/03/29 03:23:30;;;;;;;0.60;0.60;;;10.10;99.90;;;;;;6102185;23;20199;-83
2021/03/29 03:25:56;;;;;;;0.60;0.60;;;10.20;99.90;;;;;;6108415;23;20245;-83
2021/03/29 03:28:25;;;;;;;0.60;0.60;;;10.10;99.90;;;;;;6100489;23;20179;-84
2021/03/29 03:30:53;;;;;;;0.60;0.60;;;10.20;99.90;;;;;;6087530;23;20259;-83
2021/03/29 03:33:23;;;;;;;0.60;0.60;;;10.20;99.90;;;;;;6088490;23;20241;-84
2021/03/29 03:35:53;;;;;;;0.60;0.60;;;10.00;99.90;;;;;;6091663;23;20214;-84
2021/03/29 03:38:23;;;;;;;0.60;0.60;;;10.20;99.90;;;;;;6095931;23;20183;-82
2021/03/29 03:40:55;;;;;;;0.60;0.60;;;10.20;99.90;;;;;;6091365;23;20164;-83
2021/03/29 03:43:25;;;;;;;0.60;0.60;;;10.20;99.90;;;;;;6081068;23;20175;-83
2021/03/29 03:45:59;;;;;;;0.60;0.60;;;10.30;99.90;;;;;;6087568;23;20278;-84
2021/03/29 03:48:26;;;;;;;0.57;0.57;;;10.30;99.90;;;;;;6087230;23;20174;-83
2021/03/29 03:50:53;;;;;;;0.60;0.60;;;10.30;99.90;;;;;;6087780;23;20225;-83
2021/03/29 03:53:21;;;;;;;0.60;0.60;;;10.20;99.90;;;;;;6088278;23;20301;-83
2021/03/29 03:55:48;;;;;;;0.60;0.60;;;10.30;99.90;;;;;;6088089;23;20179;-83
2021/03/29 03:58:16;;;;;;;0.60;0.60;;;10.30;99.90;;;;;;6087650;23;20187;-83
2021/03/29 04:00:43;;;;;;;0.60;0.60;;;10.30;99.90;;;;;;6086099;23;20179;-84
2021/03/29 04:03:09;;;;;;;0.60;0.60;;;10.30;99.90;;;;;;6087545;23;20261;-84
2021/03/29 04:05:35;;;;;;;0.60;0.60;;;10.20;99.90;;;;;;6088509;23;20214;-84
2021/03/29 04:08:03;;;;;;;0.60;0.60;;;10.50;99.90;;;;;;6087842;23;20202;-83
2021/03/29 04:10:38;;;;;;;0.60;0.60;;;10.20;99.90;;;;;;6087957;23;20195;-82
2021/03/29 04:13:08;;;;;;;0.60;0.60;;;10.20;99.90;;;;;;6088879;23;20566;-84
2021/03/29 04:15:35;;;;;;;0.60;0.60;;;10.20;99.90;;;;;;6088591;23;20183;-83
2021/03/29 04:18:01;;;;;;;0.60;0.60;;;10.20;99.90;;;;;;6088113;23;20175;-83
2021/03/29 04:20:28;;;;;;;0.60;0.60;;;10.20;99.90;;;;;;6088489;23;20580;-82
2021/03/29 04:22:54;;;;;;;0.60;0.60;;;10.20;99.90;;;;;;6084353;23;20425;-82
2021/03/29 04:25:21;;;;;;;0.52;0.52;;;10.20;99.90;;;;;;6088486;23;20258;-82
2021/03/29 04:27:47;;;;;;;0.60;0.60;;;10.30;99.90;;;;;;6087937;23;20647;-82
2021/03/29 04:30:14;;;;;;;0.60;0.60;;;11.30;99.90;;;;;;6081444;23;20199;-82
2021/03/29 04:32:41;;;;;;;0.60;0.60;;;10.30;99.90;;;;;;6087877;23;20183;-82
2021/03/29 04:35:09;;;;;;;0.60;0.60;;;10.20;99.90;;;;;;6087791;23;20203;-82
2021/03/29 04:37:35;;;;;;;0.60;0.60;;;10.20;99.90;;;;;;6088158;23;20186;-82
2021/03/29 04:40:01;;;;;;;0.60;0.60;;;10.20;99.90;;;;;;6087945;23;20179;-82
2021/03/29 04:42:28;;;;;;;0.60;0.60;;;10.20;99.90;;;;;;6087623;23;20179;-83
2021/03/29 04:44:55;;;;;;;0.60;0.60;;;10.20;99.90;;;;;;6087847;23;20191;-83
2021/03/29 04:47:21;;;;;;;0.60;0.60;;;10.20;99.90;;;;;;6087812;23;20198;-83
2021/03/29 04:49:47;;;;;;;0.60;0.60;;;10.20;99.90;;;;;;6088374;23;20179;-83
2021/03/29 04:52:13;;;;;;;0.60;0.60;;;9.80;99.90;;;;;;6087297;23;20203;-82
2021/03/29 04:54:40;;;;;;;0.60;0.60;;;10.10;99.90;;;;;;6087585;23;20229;-83
2021/03/29 04:57:06;;;;;;;0.52;0.52;;;10.10;99.90;;;;;;6087685;23;20171;-82
2021/03/29 04:59:34;;;;;;;0.60;0.60;;;10.10;99.90;;;;;;6087922;23;20190;-83
2021/03/29 05:02:00;;;;;;;0.60;0.60;;;10.10;99.90;;;;;;6087530;23;20175;-83
2021/03/29 05:04:26;;;;;;;0.60;0.60;;;10.10;99.90;;;;;;6087393;23;20179;-83
2021/03/29 05:06:52;;;;;;;0.60;0.60;;;10.20;99.90;;;;;;6087851;23;20179;-83
2021/03/29 05:09:19;;;;;;;0.60;0.60;;;10.20;99.90;;;;;;6088329;23;20183;-82
2021/03/29 05:11:49;;;;;;;0.60;0.60;;;9.90;99.90;;;;;;6089229;23;20199;-82
2021/03/29 05:14:16;;;;;;;0.60;0.60;;;10.20;99.90;;;;;;6088417;23;20171;-82
2021/03/29 05:16:44;;;;;;;0.55;0.55;;;10.10;99.90;;;;;;6088617;23;20233;-82
2021/03/29 05:19:11;;;;;;;0.60;0.60;;;10.10;99.90;;;;;;6089066;23;20265;-82
2021/03/29 05:21:37;;;;;;;0.57;0.57;;;10.10;99.90;;;;;;6090246;23;20179;-82
2021/03/29 05:24:04;;;;;;;0.50;0.50;;;10.10;99.90;;;;;;6089977;23;20191;-82
2021/03/29 05:26:30;;;;;;;0.60;0.60;;;10.10;99.90;;;;;;6087389;23;20644;-83
2021/03/29 05:28:57;;;;;;;0.60;0.60;;;10.10;99.90;;;;;;6087892;23;20179;-83
2021/03/29 05:31:23;;;;;;;0.57;0.57;;;10.10;99.90;;;;;;6088883;23;20257;-83
2021/03/29 05:33:50;;;;;;;0.60;0.60;;;10.10;99.90;;;;;;6090524;23;20183;-83
2021/03/29 05:36:17;;;;;;;0.60;0.60;;;10.30;99.90;;;;;;6088267;23;20732;-84
2021/03/29 05:38:45;;;;;;;0.60;0.60;;;10.10;99.90;;;;;;6088217;23;20190;-84
2021/03/29 05:41:11;;;;;;;0.60;0.60;;;10.10;99.90;;;;;;6088124;23;20187;-83
2021/03/29 05:43:42;;;;;;;0.60;0.60;;;10.10;99.90;;;;;;6088217;23;20179;-83
2021/03/29 05:46:08;;;;;;;0.60;0.60;;;10.10;99.90;;;;;;6088317;23;20211;-83
2021/03/29 05:48:36;;;;;;;0.60;0.60;;;10.10;99.90;;;;;;6089451;23;20190;-84
2021/03/29 05:51:04;;;;;;;0.52;0.52;;;9.80;99.90;;;;;;6087958;23;20585;-85
2021/03/29 05:53:34;;;;;;;0.60;0.60;;;10.10;99.90;;;;;;6088395;23;20183;-85
2021/03/29 05:56:01;;;;;;;0.60;0.60;;;10.20;99.90;;;;;;6087940;23;20180;-85
2021/03/29 05:58:35;;;;;;;0.60;0.60;;;10.20;99.90;;;;;;6088102;23;20479;-85
2021/03/29 06:01:01;;;;;;;0.60;0.60;;;10.20;99.90;;;;;;6088600;23;20175;-85
2021/03/29 06:03:30;;;;;;;0.60;0.60;;;10.30;99.90;;;;;;6088029;23;20270;-85
2021/03/29 06:05:58;;;;;;;0.60;0.60;;;10.20;99.90;;;;;;6087814;23;20183;-85
2021/03/29 06:08:27;;;;;;;0.60;0.60;;;10.20;99.90;;;;;;6087859;23;20654;-86
2021/03/29 06:10:54;;;;;;;0.60;0.60;;;10.20;99.90;;;;;;6088338;23;20259;-85
2021/03/29 06:13:23;;;;;;;0.60;0.60;;;10.50;99.90;;;;;;6088705;23;20183;-85
2021/03/29 06:16:01;;;;;;;0.60;0.60;;;10.30;99.90;;;;;;6088396;23;20497;-86
2021/03/29 06:18:27;;;;;;;0.60;0.60;;;10.20;99.90;;;;;;6088244;23;20246;-86
2021/03/29 06:21:01;;;;;;;0.60;0.60;;;9.50;99.90;;;;;;6089260;23;20181;-85
2021/03/29 06:23:29;;;;;;;0.50;0.50;;;10.30;99.90;;;;;;6088172;23;20222;-85
2021/03/29 06:26:17;;;;;;;0.60;0.60;;;10.30;99.90;;;;;;6088322;23;20241;-85
2021/03/29 06:28:44;;;;;;;0.60;0.60;;;10.40;99.90;;;;;;6088023;23;20217;-85
2021/03/29 06:31:21;;;;;;;0.60;0.60;;;10.40;99.90;;;;;;6087305;23;20233;-85
2021/03/29 06:33:48;;;;;;;0.60;0.60;;;10.50;99.90;;;;;;6088377;23;20182;-85
2021/03/29 06:36:28;;;;;;;0.60;0.60;;;10.50;99.90;;;;;;6088089;23;20210;-84
2021/03/29 06:38:55;;;;;;;0.60;0.60;;;10.50;99.90;;;;;;6095018;22;20635;-85
2021/03/29 06:44:02;;;;;;;0.60;0.60;;;10.60;99.90;;;;;;6108834;22;20199;-83
2021/03/29 06:46:30;;;;;;;0.60;0.60;;;11.10;99.90;;;;;;6095956;22;20313;-80
2021/03/29 06:48:59;;;;;;;0.60;0.60;;;10.70;99.90;;;;;;6105310;22;20211;-84
2021/03/29 06:51:29;;;;;;;0.60;0.60;;;12.00;99.90;;;;;;6084571;22;20219;-84
2021/03/29 06:54:04;;;;;;;0.60;0.60;;;10.20;99.90;;;;;;6095691;23;20167;-83
2021/03/29 06:56:32;;;;;;;0.60;0.60;;;10.50;99.90;;;;;;6091613;23;20171;-84
2021/03/29 06:59:17;;;;;;;0.60;0.60;;;10.90;99.90;;;;;;6089376;23;20515;-82
2021/03/29 07:01:48;;;;;;;0.60;0.60;;;10.90;99.90;;;;;;6089383;23;20183;-82
2021/03/29 07:04:18;;;;;;;0.60;0.60;;;10.90;99.90;;;;;;6088199;23;20182;-83
2021/03/29 07:06:44;;;;;;;0.60;0.60;;;10.90;99.90;;;;;;6088154;23;20183;-83
2021/03/29 07:09:11;;;;;;;0.60;0.60;;;11.00;99.90;;;;;;6089544;23;20194;-82
2021/03/29 07:11:39;;;;;;;0.60;0.60;;;11.00;99.90;;;;;;6089591;23;20191;-82
2021/03/29 07:14:07;;;;;;;0.60;0.60;;;11.00;99.90;;;;;;6090239;23;20179;-83
2021/03/29 07:16:34;;;;;;;0.50;0.50;;;11.00;99.90;;;;;;6088616;23;20183;-83
2021/03/29 07:19:01;;;;;;;0.60;0.60;;;11.00;99.90;;;;;;6088048;23;20175;-83
2021/03/29 07:21:29;;;;;;;0.60;0.60;;;11.00;99.90;;;;;;6091821;23;20233;-84
2021/03/29 07:24:01;;;;;;;0.60;0.60;;;11.80;99.90;;;;;;6091293;23;20186;-85
2021/03/29 07:26:35;;;;;;;0.60;0.60;;;11.00;99.90;;;;;;6090468;23;20242;-86
2021/03/29 07:29:20;;;;;;;0.60;0.60;;;11.00;99.90;;;;;;6088263;23;20255;-86
2021/03/29 07:31:48;;;;;;;0.60;0.60;;;11.10;99.90;;;;;;6093406;23;20195;-85
2021/03/29 07:34:15;;;;;;;0.60;0.60;;;11.10;99.90;;;;;;6090601;23;20187;-84
2021/03/29 07:36:43;;;;;;;0.60;0.60;;;11.10;99.90;;;;;;6091520;23;20671;-85
2021/03/29 07:39:10;;;;;;;0.60;0.60;;;11.30;99.90;;;;;;6091328;23;20183;-84
2021/03/29 07:41:37;;;;;;;0.60;0.60;;;11.40;99.90;;;;;;6093640;23;20179;-85
2021/03/29 07:44:13;;;;;;;0.60;0.60;;;11.60;99.90;;;;;;6088283;23;20183;-86
2021/03/29 07:46:42;;;;;;;0.60;0.60;;;11.70;99.90;;;;;;6088880;23;20171;-85
2021/03/29 07:49:43;;;;;;;0.60;0.60;;;11.40;99.90;;;;;;6092835;23;20183;-86
2021/03/29 07:52:29;;;;;;;0.60;0.60;;;11.70;99.90;;;;;;6089092;23;20675;-85
2021/03/29 07:54:57;;;;;;;0.52;0.52;;;11.70;99.90;;;;;;6086003;23;20171;-86
2021/03/29 07:57:59;;;;;;;0.60;0.60;;;11.60;99.90;;;;;;6085583;23;20174;-86
2021/03/29 08:00:48;;;;;;;0.60;0.60;;;11.70;99.90;;;;;;6088680;23;20198;-87
2021/03/29 08:03:37;;;;;;;0.60;0.60;;;11.90;99.90;;;;;;6089301;23;20233;-85
2021/03/29 08:06:04;;;;;;;0.60;0.60;;;12.10;99.90;;;;;;6089727;23;20179;-86
2021/03/29 08:08:42;;;;;;;0.60;0.60;;;12.20;99.90;;;;;;6088687;23;20206;-86
2021/03/29 08:11:11;;;;;;;0.60;0.60;;;12.60;99.90;;;;;;6089212;23;20694;-86
2021/03/29 08:13:39;;;;;;;0.60;0.60;;;12.10;99.90;;;;;;6089277;23;20171;-87
2021/03/29 08:16:08;;;;;;;0.60;0.60;;;12.10;99.90;;;;;;6089843;23;20175;-86
2021/03/29 08:19:08;;;;;;;0.60;0.60;;;12.00;99.90;;;;;;6089281;23;20190;-86
2021/03/29 08:21:50;;;;;;;0.60;0.60;;;12.10;99.90;;;;;;6089195;23;20175;-87
2021/03/29 08:24:18;;;;;;;0.60;0.60;;;12.10;99.90;;;;;;6089702;23;20187;-86
2021/03/29 08:26:46;;;;;;;0.60;0.60;;;12.10;99.90;;;;;;6089369;23;20183;-86
2021/03/29 08:29:19;;;;;;;0.60;0.60;;;12.50;99.90;;;;;;6090468;23;20648;-87
2021/03/29 08:32:10;;;;;;;0.60;0.60;;;13.50;99.90;;;;;;6090073;23;20210;-87
2021/03/29 08:34:45;;;;;;;0.60;0.60;;;12.00;99.90;;;;;;6091235;23;20496;-87
2021/03/29 08:37:13;;;;;;;0.60;0.60;;;12.00;99.90;;;;;;6088884;23;20187;-86
2021/03/29 08:39:41;;;;;;;0.60;0.60;;;12.00;99.90;;;;;;6087635;23;20175;-86
2021/03/29 08:42:11;;;;;;;0.60;0.60;;;11.90;99.90;;;;;;6087528;23;20176;-86
2021/03/29 08:44:42;;;;;;;0.60;0.60;;;12.00;99.90;;;;;;6088699;23;20179;-86
2021/03/29 08:47:13;;;;;;;0.60;0.60;;;13.90;99.90;;;;;;6094877;23;20163;-87
2021/03/29 08:49:44;;;;;;;0.60;0.60;;;12.10;99.90;;;;;;6092652;23;20168;-86
2021/03/29 08:52:11;;;;;;;0.60;0.60;;;12.30;99.90;;;;;;6096660;23;20285;-87
2021/03/29 08:55:00;;;;;;;;;;;;;;;;;;;;;
2021/03/29 08:57:29;;;;;;;0.60;0.60;;;12.70;99.90;;;;;;6091774;23;20699;-86
2021/03/29 09:00:00;;;;;;;0.60;0.60;;;13.50;99.90;;;;;;6089152;23;20179;-85
2021/03/29 09:02:29;;;;;;;0.60;0.60;;;13.90;99.90;;;;;;6091368;23;20217;-86
2021/03/29 09:04:57;;;;;;;0.60;0.60;;;12.30;99.90;;;;;;6092046;23;20232;-86
2021/03/29 09:07:48;;;;;;;0.60;0.60;;;13.10;99.90;;;;;;6088805;23;20179;-86
2021/03/29 09:10:25;;;;;;;0.60;0.60;;;14.80;99.90;;;;;;6078236;23;20650;-86
2021/03/29 09:12:59;;;;;;;0.60;0.60;;;14.20;99.90;;;;;;6084783;23;20182;-86
2021/03/29 09:15:28;;;;;;;0.60;0.60;;;13.40;99.90;;;;;;6088445;23;20171;-86
2021/03/29 09:17:59;;;;;;;0.60;0.60;;;14.80;99.90;;;;;;6093716;23;20237;-86
2021/03/29 09:20:27;;;;;;;0.60;0.60;;;12.80;99.90;;;;;;6090825;23;20187;-86
2021/03/29 09:22:53;;;;;;;0.60;0.60;;;12.60;99.90;;;;;;6091191;23;20179;-87
2021/03/29 09:25:25;;;;;;;0.60;0.60;;;12.80;99.90;;;;;;6085374;23;20291;-86
2021/03/29 09:28:17;;;;;;;0.57;0.57;;;12.90;99.90;;;;;;6092909;23;20178;-87
2021/03/29 09:30:48;;;;;;;0.60;0.60;;;13.00;99.90;;;;;;6092403;23;20207;-87
2021/03/29 09:33:19;;;;;;;0.60;0.60;;;12.50;99.90;;;;;;6096065;23;20217;-87
2021/03/29 09:35:46;;;;;;;0.60;0.60;;;;;;;;;;6090909;23;20237;-88
2021/03/29 09:38:17;;;;;;;0.60;0.60;;;13.20;99.90;;;;;;6090893;23;20179;-87
2021/03/29 09:40:43;;;;;;;0.60;0.60;;;13.40;99.90;;;;;;6092760;23;20179;-85
2021/03/29 09:43:20;;;;;;;0.60;0.60;;;13.30;99.90;;;;;;6086430;23;20176;-86
2021/03/29 09:45:48;;;;;;;0.60;0.60;;;13.40;99.90;;;;;;6086750;23;20195;-86
2021/03/29 09:48:15;;;;;;;0.60;0.60;;;13.40;99.90;;;;;;6087823;23;20648;-87
2021/03/29 09:50:45;;;;;;;0.60;0.60;;;13.50;99.90;;;;;;6083578;23;20281;-87
2021/03/29 09:53:17;;;;;;;0.60;0.60;;;13.30;99.90;;;;;;6084474;23;20266;-88
2021/03/29 09:55:49;;;;;;;0.60;0.60;;;13.60;99.90;;;;;;6086152;23;20168;-88
2021/03/29 09:58:26;;;;;;;0.60;0.60;;;13.20;99.90;;;;;;6087555;23;20183;-88
2021/03/29 10:00:56;;;;;;;0.60;0.60;;;14.20;99.90;;;;;;6093642;23;20170;-88
2021/03/29 10:03:23;;;;;;;0.60;0.60;;;13.90;99.90;;;;;;6087386;23;20183;-88
2021/03/29 10:05:52;;;;;;;0.60;0.60;;;14.20;99.90;;;;;;6088067;23;20554;-87
2021/03/29 10:08:28;;;;;;;0.60;0.60;;;13.40;99.90;;;;;;6088183;23;20263;-86
2021/03/29 10:11:11;;;;;;;0.60;0.60;;;14.20;99.90;;;;;;6089282;23;20222;-90
2021/03/29 10:14:21;;;;;;;;;;;;;;;;;;;;;
2021/03/29 10:17:16;;;;;;;0.50;0.50;;;16.30;99.90;;;;;;6089640;23;20183;-88
2021/03/29 10:19:43;;;;;;;0.60;0.60;;;14.60;99.90;;;;;;6088345;23;20187;-86
2021/03/29 10:22:13;;;;;;;0.60;0.60;;;16.20;99.90;;;;;;6089503;23;20628;-87
2021/03/29 10:24:58;;;;;;;0.60;0.60;;;17.60;99.90;;;;;;6085237;23;20183;-86
2021/03/29 10:27:36;;;;;;;0.60;0.60;;;14.70;99.90;;;;;;6088332;23;20173;-86
2021/03/29 10:30:07;;;;;;;0.60;0.60;;;15.30;99.90;;;;;;6090342;23;20167;-86
2021/03/29 10:32:33;;;;;;;0.60;0.60;;;14.10;99.90;;;;;;6089445;23;20187;-87
2021/03/29 10:34:59;;;;;;;0.60;0.60;;;14.90;99.90;;;;;;6090058;23;20191;-87
2021/03/29 10:37:27;;;;;;;0.50;0.50;;;14.70;99.90;;;;;;6090697;23;20218;-85
2021/03/29 10:40:01;;;;;;;0.60;0.60;;;15.10;99.90;;;;;;6090354;23;20210;-86
2021/03/29 10:42:40;;;;;;;0.60;0.60;;;15.00;99.90;;;;;;6090444;23;20183;-85
2021/03/29 10:45:10;;;;;;;0.60;0.60;;;17.20;99.90;;;;;;6089725;23;20195;-85
2021/03/29 10:47:37;;;;;;;0.60;0.60;;;15.40;99.90;;;;;;6089280;23;20183;-85
2021/03/29 10:50:04;;;;;;;0.60;0.60;;;15.10;99.90;;;;;;6088510;23;20521;-86
2021/03/29 10:52:30;;;;;;;0.60;0.60;;;15.70;99.90;;;;;;6087778;23;20671;-86
2021/03/29 10:54:57;;;;;;;0.60;0.60;;;16.40;99.90;;;;;;6087614;23;20179;-86
2021/03/29 10:57:23;;;;;;;0.60;0.60;;;15.80;99.90;;;;;;6088463;23;20240;-86
2021/03/29 10:59:49;;;;;;;0.57;0.57;;;16.50;99.90;;;;;;6088951;23;20266;-85
2021/03/29 11:02:16;;;;;;;0.60;0.60;;;18.40;99.90;;;;;;6088920;23;20207;-85
2021/03/29 11:04:43;;;;;;;0.60;0.60;;;18.30;99.90;;;;;;6088560;23;20183;-85
2021/03/29 11:07:09;;;;;;;0.60;0.60;;;16.10;99.90;;;;;;6088802;23;20523;-86
2021/03/29 11:09:36;;;;;;;0.60;0.60;;;15.00;99.90;;;;;;6085314;23;20179;-85
2021/03/29 11:12:02;;;;;;;0.60;0.60;;;17.90;99.90;;;;;;6089798;23;20199;-85
2021/03/29 11:14:29;;;;;;;0.60;0.60;;;16.50;99.90;;;;;;6087837;23;20189;-85
2021/03/29 11:16:58;;;;;;;0.60;0.60;;;16.10;99.90;;;;;;6086286;23;20639;-84
2021/03/29 11:19:25;;;;;;;0.55;0.55;;;16.40;99.90;;;;;;6088628;23;20193;-85
2021/03/29 11:21:53;;;;;;;0.60;0.60;;;16.80;99.90;;;;;;6089332;23;20179;-85
2021/03/29 11:24:20;;;;;;;0.60;0.60;;;16.70;99.90;;;;;;6087659;23;20643;-85
2021/03/29 11:26:46;;;;;;;0.60;0.60;;;18.00;99.90;;;;;;6090094;23;20183;-84
2021/03/29 11:29:13;;;;;;;0.60;0.60;;;17.80;99.90;;;;;;6088169;23;20187;-85
2021/03/29 11:31:41;;;;;;;0.52;0.52;;;17.30;99.90;;;;;;6087224;23;20195;-85
2021/03/29 11:34:08;;;;;;;0.57;0.57;;;17.40;99.90;;;;;;6088443;23;20265;-86
2021/03/29 11:36:35;;;;;;;0.60;0.60;;;19.70;99.90;;;;;;6089489;23;20187;-86
2021/03/29 11:39:06;;;;;;;0.50;0.50;;;17.10;99.90;;;;;;6087627;23;20179;-86
2021/03/29 11:41:33;;;;;;;0.60;0.60;;;17.90;99.90;;;;;;6088064;23;20167;-86
2021/03/29 11:43:59;;;;;;;0.60;0.60;;;17.20;99.90;;;;;;6087983;23;20533;-86
2021/03/29 11:46:29;;;;;;;0.60;0.60;;;17.20;99.90;;;;;;6088115;23;20190;-87
2021/03/29 11:48:55;;;;;;;0.60;0.60;;;18.50;99.90;;;;;;6088236;23;20180;-86
2021/03/29 11:51:21;;;;;;;0.60;0.60;;;18.60;99.90;;;;;;6088148;23;20203;-87
2021/03/29 11:53:48;;;;;;;0.60;0.60;;;18.70;99.90;;;;;;6087436;23;20190;-86
2021/03/29 11:56:14;;;;;;;0.60;0.60;;;20.50;99.90;;;;;;6088048;23;20179;-86
2021/03/29 11:58:41;;;;;;;0.60;0.60;;;18.50;99.90;;;;;;6087847;23;20187;-86
2021/03/29 12:01:16;;;;;;;0.50;0.50;;;18.50;99.90;;;;;;6088558;23;20199;-86
2021/03/29 12:03:46;;;;;;;0.60;0.60;;;18.60;99.90;;;;;;6087597;23;20552;-86
2021/03/29 12:06:15;;;;;;;0.60;0.60;;;18.80;99.90;;;;;;6087715;23;20176;-86
2021/03/29 12:08:46;;;;;;;0.60;0.60;;;21.10;99.90;;;;;;6082223;23;20183;-87
2021/03/29 12:13:58;;;;;;;0.60;0.60;;;19.20;99.90;;;;;;6087000;23;20799;-86
2021/03/29 12:16:26;;;;;;;0.60;0.60;;;19.30;99.90;;;;;;6085333;23;20270;-86
2021/03/29 12:18:55;;;;;;;0.60;0.60;;;19.30;99.90;;;;;;6085156;23;20199;-86
2021/03/29 12:21:24;;;;;;;0.60;0.60;;;19.40;99.90;;;;;;6090047;23;20505;-86
2021/03/29 12:23:54;;;;;;;0.60;0.60;;;19.20;99.90;;;;;;6086839;23;20193;-86
2021/03/29 12:26:24;;;;;;;0.60;0.60;;;19.30;99.90;;;;;;6088399;23;20187;-88
2021/03/29 12:28:52;;;;;;;0.50;0.50;;;19.30;99.90;;;;;;6088428;23;20567;-88
2021/03/29 12:31:19;;;;;;;0.60;0.60;;;19.20;99.90;;;;;;6088181;23;20702;-88
2021/03/29 12:33:46;;;;;;;0.60;0.60;;;19.30;99.90;;;;;;6085717;23;20182;-88
2021/03/29 12:36:13;;;;;;;0.60;0.60;;;19.40;99.90;;;;;;6088014;23;20174;-88
2021/03/29 12:38:43;;;;;;;0.60;0.60;;;19.30;99.90;;;;;;6077571;23;20614;-87
2021/03/29 12:41:11;;;;;;;0.60;0.60;;;19.40;99.90;;;;;;6089539;23;20178;-86
2021/03/29 12:43:41;;;;;;;0.60;0.60;;;19.50;99.90;;;;;;6090864;23;20190;-85
2021/03/29 12:46:08;;;;;;;0.60;0.60;;;19.50;99.90;;;;;;6087653;23;20720;-84
2021/03/29 12:48:37;;;;;;;0.60;0.60;;;19.60;99.90;;;;;;6087999;23;20190;-84
2021/03/29 12:51:05;;;;;;;0.60;0.60;;;19.50;99.90;;;;;;6087814;23;20278;-85
2021/03/29 12:53:32;;;;;;;0.60;0.60;;;19.40;99.90;;;;;;6087710;23;20183;-84
2021/03/29 12:55:59;;;;;;;0.60;0.60;;;19.40;99.90;;;;;;6086873;23;20183;-84
2021/03/29 12:58:25;;;;;;;0.60;0.60;;;19.20;99.90;;;;;;6086884;23;20229;-84
2021/03/29 13:00:54;;;;;;;0.60;0.60;;;19.40;99.90;;;;;;6087282;23;20179;-85
2021/03/29 13:03:21;;;;;;;0.60;0.60;;;19.40;99.90;;;;;;6087561;23;20179;-84
2021/03/29 13:05:51;;;;;;;0.57;0.57;;;19.40;99.90;;;;;;6087985;23;20184;-84
2021/03/29 13:08:23;;;;;;;0.60;0.60;;;19.40;99.90;;;;;;6091073;23;20186;-84
2021/03/29 13:13:39;;;;;;;0.60;0.60;;;20.00;99.90;;;;;;6088955;23;20182;-85
2021/03/29 13:16:07;;;;;;;0.60;0.60;;;20.20;99.90;;;;;;6089130;23;20202;-85
2021/03/29 13:18:33;;;;;;;0.60;0.60;;;20.00;99.90;;;;;;6089320;23;20491;-84
2021/03/29 13:20:59;;;;;;;0.60;0.60;;;20.10;99.90;;;;;;6088642;23;20190;-85